Mountlake Terrace, Washington
Current Conditions -  °F | °C
As of 9:53 AM on Saturday 25 Oct 2014 (Local Time) from KPAE Reporting Station
Light Rain Light Rain  
Wind Chill: 52°   Ceiling: 7000
Heat Index: 52°   Visibility: 10mi
Dew Point: 48°   Wind: 3mph
Humidity: 86%   Direction: NA
Pressure: 29.52"   Gusts: NA
Location:  47.79°N, 122.31°W
Report Text: KPAE 251653Z VRB03KT 10SM -RA OVC070 11/09 A2952 RMK AO2 SLP998 P0002 T01110089
Loading
Personal Weather Stations






























Interactive Weather Map
Tropical Storm Tracking
New forecast layout! Learn more

10-Day Weather Forecast

Advertisements
Track Severe Weather on mobile